createdAt,value
2023-05-19T00:00:49.002Z,13.68
2023-05-19T00:06:32.827Z,13.85
2023-05-19T00:09:22.845Z,13.45
2023-05-19T00:12:15.880Z,13.13
2023-05-19T00:17:55.877Z,10.23
2023-05-19T00:20:45.909Z,14.10
2023-05-19T00:23:35.179Z,10.68
2023-05-19T00:26:24.719Z,10.50
2023-05-19T00:29:22.777Z,16.02
2023-05-19T00:32:12.129Z,19.10
2023-05-19T00:35:01.615Z,20.30
2023-05-19T00:37:50.992Z,17.33
2023-05-19T00:40:40.421Z,16.45
2023-05-19T00:43:30.362Z,13.25
2023-05-19T00:46:21.525Z,16.88
2023-05-19T00:49:11.044Z,16.25
2023-05-19T00:52:02.583Z,17.33
2023-05-19T00:54:52.760Z,17.92
2023-05-19T00:57:42.710Z,15.48
2023-05-19T01:00:33.198Z,15.60
2023-05-19T01:03:25.713Z,16.20
2023-05-19T01:06:15.308Z,20.73
2023-05-19T01:09:04.996Z,13.65
2023-05-19T01:11:54.682Z,16.88
2023-05-19T01:14:44.532Z,18.48
2023-05-19T01:17:43.595Z,20.40
2023-05-19T01:20:46.480Z,24.35
2023-05-19T01:23:47.873Z,23.98
2023-05-19T01:27:11.126Z,24.80
2023-05-19T01:30:30.193Z,22.90
2023-05-19T01:33:21.574Z,20.15
2023-05-19T01:36:13.622Z,24.80
2023-05-19T01:39:03.551Z,20.40
2023-05-19T01:41:53.637Z,17.17
2023-05-19T01:44:43.581Z,23.83
2023-05-19T01:47:34.978Z,25.55
2023-05-19T01:50:24.765Z,25.08
2023-05-19T01:53:14.535Z,26.75
2023-05-19T01:56:04.568Z,32.05
2023-05-19T01:59:01.626Z,32.15
2023-05-19T02:01:55.084Z,27.95
2023-05-19T02:04:52.620Z,32.53
2023-05-19T02:07:49.184Z,28.75
2023-05-19T02:10:43.644Z,39.13
2023-05-19T02:13:38.574Z,39.42
2023-05-19T02:16:30.468Z,37.20
2023-05-19T02:19:25.875Z,36.13
2023-05-19T02:22:18.891Z,35.20
2023-05-19T02:25:11.343Z,41.42
2023-05-19T02:28:01.680Z,48.55
2023-05-19T02:30:52.823Z,34.70
2023-05-19T02:33:43.104Z,39.38
2023-05-19T02:36:37.866Z,41.22
2023-05-19T02:39:29.512Z,50.65
2023-05-19T02:42:18.925Z,51.13
2023-05-19T02:45:09.666Z,49.67
2023-05-19T02:48:00.516Z,38.85
2023-05-19T02:50:49.820Z,44.85
2023-05-19T02:53:39.217Z,37.83
2023-05-19T02:56:30.075Z,41.42
2023-05-19T02:59:19.343Z,48.17
2023-05-19T03:02:08.821Z,45.55
2023-05-19T03:04:58.152Z,50.55
2023-05-19T03:07:47.754Z,44.70
2023-05-19T03:10:37.028Z,38.15
2023-05-19T03:13:27.738Z,43.58
2023-05-19T03:16:17.001Z,54.17
2023-05-19T03:19:06.306Z,45.35
2023-05-19T03:21:56.503Z,40.03
2023-05-19T03:24:46.039Z,45.70
2023-05-19T03:27:35.337Z,44.25
2023-05-19T03:30:26.237Z,49.47
2023-05-19T03:33:30.926Z,58.80
2023-05-19T03:36:22.174Z,39.25
2023-05-19T03:39:11.773Z,51.53
2023-05-19T03:42:01.213Z,41.42
2023-05-19T03:44:50.778Z,48.80
2023-05-19T03:47:42.260Z,46.42
2023-05-19T03:50:46.231Z,48.60
2023-05-19T03:53:45.728Z,47.60
2023-05-19T03:56:35.195Z,43.25
2023-05-19T03:59:24.844Z,47.22
2023-05-19T04:02:16.612Z,46.70
2023-05-19T04:05:08.687Z,46.05
2023-05-19T04:07:59.657Z,57.83
2023-05-19T04:10:49.093Z,53.78
2023-05-19T04:13:38.518Z,48.72
2023-05-19T04:16:28.005Z,53.63
2023-05-19T04:19:17.454Z,48.05
2023-05-19T04:22:08.582Z,42.72
2023-05-19T04:24:58.288Z,52.22
2023-05-19T04:27:48.368Z,48.42
2023-05-19T04:30:38.829Z,45.65
2023-05-19T04:33:29.389Z,46.75
2023-05-19T04:36:21.736Z,55.15
2023-05-19T04:39:15.764Z,49.08
2023-05-19T04:42:09.100Z,50.75
2023-05-19T04:44:59.000Z,44.92
2023-05-19T04:47:52.789Z,51.70
2023-05-19T04:50:42.521Z,42.13
2023-05-19T04:53:32.587Z,47.47
2023-05-19T04:56:23.755Z,50.00
2023-05-19T04:59:13.328Z,48.78
2023-05-19T05:02:02.988Z,58.53
2023-05-19T05:04:54.599Z,50.22
2023-05-19T05:07:45.232Z,52.05
2023-05-19T05:10:34.929Z,59.83
2023-05-19T05:13:27.487Z,41.92
2023-05-19T05:16:18.169Z,38.67
2023-05-19T05:19:15.508Z,49.90
2023-05-19T05:22:17.733Z,46.83
2023-05-19T05:25:09.508Z,50.75
2023-05-19T05:28:05.179Z,64.73
2023-05-19T05:30:58.057Z,48.03
2023-05-19T05:33:48.024Z,36.20
2023-05-19T05:36:41.859Z,49.47
2023-05-19T05:39:34.679Z,61.85
2023-05-19T05:42:29.616Z,43.53
2023-05-19T05:45:22.561Z,44.00
2023-05-19T05:48:29.850Z,42.03
2023-05-19T05:51:24.189Z,49.50
2023-05-19T05:57:15.118Z,58.75
2023-05-19T06:00:08.944Z,47.08
2023-05-19T06:03:05.993Z,42.95
2023-05-19T06:05:57.256Z,53.53
2023-05-19T06:08:47.076Z,49.80
2023-05-19T06:11:36.884Z,47.35
2023-05-19T06:14:36.456Z,52.95
2023-05-19T06:17:58.028Z,48.45
2023-05-19T06:20:47.682Z,49.53
2023-05-19T06:23:38.520Z,44.28
2023-05-19T06:26:30.075Z,50.80
2023-05-19T06:29:19.806Z,57.90
2023-05-19T06:32:11.102Z,54.25
2023-05-19T06:35:01.205Z,59.42
2023-05-19T06:37:53.221Z,39.72
2023-05-19T06:40:47.762Z,39.28
2023-05-19T06:43:37.678Z,50.20
2023-05-19T06:46:29.051Z,43.58
2023-05-19T06:49:20.454Z,48.15
2023-05-19T06:52:14.155Z,43.40
2023-05-19T06:55:08.052Z,41.03
2023-05-19T06:58:01.320Z,49.17
2023-05-19T07:00:50.899Z,48.20
2023-05-19T07:03:40.687Z,50.13
2023-05-19T07:06:31.426Z,46.08
2023-05-19T07:09:21.072Z,39.78
2023-05-19T07:12:11.148Z,57.05
2023-05-19T07:15:02.200Z,42.15
2023-05-19T07:17:51.968Z,45.10
2023-05-19T07:20:41.362Z,43.38
2023-05-19T07:23:30.758Z,43.63
2023-05-19T07:26:20.420Z,44.70
2023-05-19T07:29:09.795Z,47.95
2023-05-19T07:32:00.614Z,46.95
2023-05-19T07:34:50.068Z,46.70
2023-05-19T07:37:39.427Z,52.33
2023-05-19T07:40:28.861Z,46.38
2023-05-19T07:43:18.258Z,41.60
2023-05-19T07:46:07.909Z,46.50
2023-05-19T07:48:58.937Z,42.78
2023-05-19T07:51:48.583Z,41.75
2023-05-19T07:54:39.785Z,41.45
2023-05-19T07:57:29.364Z,44.72
2023-05-19T08:00:19.929Z,41.40
2023-05-19T08:03:10.409Z,41.83
2023-05-19T08:06:01.417Z,47.08
2023-05-19T08:08:50.786Z,38.35
2023-05-19T08:11:40.177Z,44.85
2023-05-19T08:14:29.491Z,38.75
2023-05-19T08:17:18.760Z,50.40
2023-05-19T08:20:10.282Z,39.42
2023-05-19T08:23:01.183Z,44.22
2023-05-19T08:25:50.381Z,43.72
2023-05-19T08:28:39.848Z,45.47
2023-05-19T08:31:29.674Z,53.03
2023-05-19T08:34:19.023Z,39.80
2023-05-19T08:37:09.241Z,39.75
2023-05-19T08:39:59.960Z,41.63
2023-05-19T08:42:49.761Z,46.17
2023-05-19T08:45:40.628Z,41.80
2023-05-19T08:48:32.216Z,44.55
2023-05-19T08:51:33.417Z,44.00
2023-05-19T08:54:26.916Z,32.00
2023-05-19T08:57:18.417Z,34.75
2023-05-19T09:00:11.954Z,37.30
2023-05-19T09:05:55.864Z,35.35
2023-05-19T09:08:47.270Z,42.17
2023-05-19T09:11:37.980Z,41.40
2023-05-19T09:14:29.362Z,32.33
2023-05-19T09:17:19.150Z,39.45
2023-05-19T09:20:11.486Z,39.47
2023-05-19T09:23:01.841Z,38.70
2023-05-19T09:25:52.186Z,35.58
2023-05-19T09:28:42.473Z,30.40
2023-05-19T09:31:35.865Z,42.30
2023-05-19T09:34:26.920Z,36.90
2023-05-19T09:37:16.296Z,31.08
2023-05-19T09:40:10.553Z,28.17
2023-05-19T09:43:00.654Z,35.88
2023-05-19T09:45:50.100Z,36.72
2023-05-19T09:48:40.980Z,35.83
2023-05-19T09:51:32.111Z,36.03
2023-05-19T09:54:23.863Z,30.13
2023-05-19T09:57:13.757Z,36.58
2023-05-19T10:00:12.020Z,35.20
2023-05-19T10:03:02.984Z,31.33
2023-05-19T10:05:55.344Z,34.50
2023-05-19T10:08:45.755Z,31.40
2023-05-19T10:11:35.727Z,32.63
2023-05-19T10:14:26.803Z,33.50
2023-05-19T10:17:16.817Z,34.92
2023-05-19T10:20:11.018Z,41.80
2023-05-19T10:23:03.033Z,32.80
2023-05-19T10:25:54.558Z,39.63
2023-05-19T10:28:46.710Z,37.30
2023-05-19T10:31:37.295Z,38.27
2023-05-19T10:35:13.249Z,32.53
2023-05-19T10:38:23.401Z,34.47
2023-05-19T10:41:24.120Z,36.90
2023-05-19T10:44:36.575Z,30.27
2023-05-19T10:47:26.925Z,28.00
2023-05-19T10:50:17.518Z,36.78
2023-05-19T10:53:18.587Z,30.20
2023-05-19T10:56:10.297Z,34.05
2023-05-19T10:58:59.925Z,31.77
2023-05-19T11:01:49.301Z,26.38
2023-05-19T11:04:51.925Z,32.20
2023-05-19T11:07:44.651Z,33.15
2023-05-19T11:10:35.921Z,27.08
2023-05-19T11:13:29.957Z,33.75
2023-05-19T11:16:22.363Z,27.92
2023-05-19T11:19:20.248Z,28.55
2023-05-19T11:22:12.405Z,27.17
2023-05-19T11:25:01.690Z,28.80
2023-05-19T11:27:53.594Z,30.10
2023-05-19T11:30:44.703Z,34.20
2023-05-19T11:33:34.557Z,25.10
2023-05-19T11:36:24.476Z,27.15
2023-05-19T11:39:13.792Z,29.30
2023-05-19T11:42:03.275Z,29.38
2023-05-19T11:44:57.412Z,27.35
2023-05-19T11:48:01.112Z,26.42
2023-05-19T11:50:52.567Z,28.83
2023-05-19T11:53:42.300Z,28.48
2023-05-19T11:56:36.914Z,38.95
2023-05-19T11:59:34.211Z,29.17
2023-05-19T12:02:28.021Z,31.20
2023-05-19T12:05:23.052Z,33.20
2023-05-19T12:08:12.985Z,27.10
2023-05-19T12:11:02.429Z,25.02
2023-05-19T12:13:54.765Z,32.95
2023-05-19T12:16:44.275Z,28.42
2023-05-19T12:19:35.197Z,29.88
2023-05-19T12:22:24.654Z,28.90
2023-05-19T12:25:14.711Z,29.40
2023-05-19T12:28:04.667Z,30.45
2023-05-19T12:30:54.748Z,28.02
2023-05-19T12:33:44.356Z,25.67
2023-05-19T12:36:35.941Z,25.83
2023-05-19T12:39:26.389Z,23.38
2023-05-19T12:42:17.650Z,25.63
2023-05-19T12:45:08.562Z,28.42
2023-05-19T12:47:58.015Z,25.30
2023-05-19T12:50:49.755Z,27.88
2023-05-19T12:53:40.515Z,32.53
2023-05-19T12:56:30.147Z,23.40
2023-05-19T12:59:37.255Z,25.80
2023-05-19T13:02:27.658Z,25.85
2023-05-19T13:05:17.146Z,33.15
2023-05-19T13:08:09.079Z,25.55
2023-05-19T13:11:00.223Z,27.42
2023-05-19T13:13:49.685Z,29.02
2023-05-19T13:16:39.206Z,27.70
2023-05-19T13:19:28.713Z,28.70
2023-05-19T13:22:18.188Z,24.60
2023-05-19T13:25:09.065Z,31.00
2023-05-19T13:28:01.448Z,25.48
2023-05-19T13:30:51.520Z,32.35
2023-05-19T13:33:40.895Z,30.77
2023-05-19T13:36:30.224Z,26.63
2023-05-19T13:39:19.629Z,25.45
2023-05-19T13:42:09.252Z,18.23
2023-05-19T13:45:00.233Z,22.08
2023-05-19T13:47:49.520Z,23.08
2023-05-19T13:50:39.003Z,25.50
2023-05-19T13:53:29.717Z,23.50
2023-05-19T13:56:19.124Z,22.35
2023-05-19T13:59:08.663Z,25.13
2023-05-19T14:02:00.454Z,24.30
2023-05-19T14:04:49.855Z,22.80
2023-05-19T14:07:39.266Z,27.13
2023-05-19T14:10:28.664Z,22.90
2023-05-19T14:13:32.550Z,24.73
2023-05-19T14:16:23.897Z,25.08
2023-05-19T14:19:14.688Z,27.95
2023-05-19T14:22:04.153Z,27.58
2023-05-19T14:24:53.830Z,18.85
2023-05-19T14:27:43.168Z,20.30
2023-05-19T14:30:32.872Z,24.08
2023-05-19T14:33:22.732Z,22.20
2023-05-19T14:36:13.462Z,23.25
2023-05-19T14:39:03.236Z,24.02
2023-05-19T14:41:53.143Z,23.67
2023-05-19T14:44:42.429Z,24.60
2023-05-19T14:47:31.855Z,15.35
2023-05-19T14:50:21.495Z,16.83
2023-05-19T14:53:12.412Z,22.42
2023-05-19T14:56:01.689Z,22.55
2023-05-19T14:58:51.056Z,24.02
2023-05-19T15:01:40.506Z,23.77
2023-05-19T15:04:30.215Z,21.17
2023-05-19T15:07:20.212Z,23.52
2023-05-19T15:10:12.475Z,21.10
2023-05-19T15:13:01.849Z,19.23
2023-05-19T15:16:08.280Z,21.15
2023-05-19T15:19:05.394Z,17.58
2023-05-19T15:21:54.800Z,17.30
2023-05-19T15:24:44.520Z,23.25
2023-05-19T15:27:36.437Z,18.77
2023-05-19T15:30:26.162Z,19.57
2023-05-19T15:33:15.948Z,17.52
2023-05-19T15:36:05.978Z,19.63
2023-05-19T15:38:55.387Z,18.95
2023-05-19T15:41:44.830Z,18.25
2023-05-19T15:44:36.613Z,20.48
2023-05-19T15:47:26.110Z,24.30
2023-05-19T15:50:16.910Z,18.75
2023-05-19T15:53:07.847Z,20.70
2023-05-19T15:55:58.371Z,18.77
2023-05-19T15:58:47.650Z,21.50
2023-05-19T16:01:38.906Z,19.80
2023-05-19T16:04:28.651Z,17.50
2023-05-19T16:07:18.601Z,17.63
2023-05-19T16:10:09.428Z,27.90
2023-05-19T16:12:58.797Z,24.98
2023-05-19T16:15:48.226Z,19.38
2023-05-19T16:18:39.128Z,19.65
2023-05-19T16:21:28.588Z,16.98
2023-05-19T16:24:17.931Z,20.15
2023-05-19T16:27:07.442Z,18.25
2023-05-19T16:29:57.206Z,16.58
2023-05-19T16:32:46.730Z,16.90
2023-05-19T16:35:37.572Z,16.17
2023-05-19T16:38:26.835Z,16.58
2023-05-19T16:41:16.109Z,16.58
2023-05-19T16:44:05.474Z,17.48
2023-05-19T16:46:54.804Z,19.73
2023-05-19T16:49:44.228Z,17.20
2023-05-19T16:52:34.928Z,15.95
2023-05-19T16:55:25.475Z,15.68
2023-05-19T16:58:14.814Z,17.42
2023-05-19T17:01:04.692Z,18.20
2023-05-19T17:03:55.824Z,14.40
2023-05-19T17:06:46.250Z,14.93
2023-05-19T17:09:37.178Z,17.35
2023-05-19T17:12:26.588Z,12.82
2023-05-19T17:15:19.326Z,15.23
2023-05-19T17:18:08.633Z,17.90
2023-05-19T17:20:59.330Z,18.75
2023-05-19T17:23:49.534Z,19.33
2023-05-19T17:26:40.202Z,14.50
2023-05-19T17:29:29.521Z,17.50
2023-05-19T17:32:18.847Z,23.23
2023-05-19T17:35:09.653Z,20.80
2023-05-19T17:37:59.389Z,21.27
2023-05-19T17:40:48.828Z,19.23
2023-05-19T17:43:42.333Z,22.48
2023-05-19T17:46:34.752Z,22.65
2023-05-19T17:49:25.853Z,21.98
2023-05-19T17:52:16.655Z,20.42
2023-05-19T17:55:07.928Z,20.40
2023-05-19T17:57:58.097Z,17.98
2023-05-19T18:00:49.444Z,16.77
2023-05-19T18:03:39.915Z,21.38
2023-05-19T18:06:31.552Z,19.58
2023-05-19T18:09:26.011Z,24.35
2023-05-19T18:12:17.647Z,20.40
2023-05-19T18:15:08.372Z,16.42
2023-05-19T18:17:59.393Z,17.48
2023-05-19T18:20:48.700Z,19.85
2023-05-19T18:23:38.351Z,19.75
2023-05-19T18:26:27.803Z,21.55
2023-05-19T18:29:17.184Z,21.73
2023-05-19T18:32:07.761Z,20.85
2023-05-19T18:34:58.677Z,22.73
2023-05-19T18:37:48.048Z,17.02
2023-05-19T18:40:37.491Z,21.20
2023-05-19T18:43:26.791Z,21.60
2023-05-19T18:46:16.300Z,24.55
2023-05-19T18:49:06.816Z,21.25
2023-05-19T18:51:57.519Z,22.17
2023-05-19T18:54:47.725Z,22.80
2023-05-19T18:57:37.081Z,21.50
2023-05-19T19:00:28.137Z,22.10
2023-05-19T19:03:17.725Z,22.80
2023-05-19T19:06:07.145Z,20.17
2023-05-19T19:08:58.173Z,19.52
2023-05-19T19:11:47.510Z,20.35
2023-05-19T19:14:36.956Z,23.83
2023-05-19T19:17:26.702Z,21.98
2023-05-19T19:20:16.240Z,22.83
2023-05-19T19:23:06.837Z,20.95
2023-05-19T19:25:57.795Z,21.17
2023-05-19T19:28:47.525Z,22.08
2023-05-19T19:31:36.826Z,22.85
2023-05-19T19:34:26.283Z,19.23
2023-05-19T19:37:16.632Z,17.38
2023-05-19T19:40:07.531Z,22.65
2023-05-19T19:42:58.458Z,26.25
2023-05-19T19:45:47.891Z,21.23
2023-05-19T19:48:37.317Z,24.92
2023-05-19T19:51:26.795Z,26.02
2023-05-19T19:54:16.230Z,20.85
2023-05-19T19:57:06.354Z,22.17
2023-05-19T20:00:00.006Z,23.00
2023-05-19T20:03:03.737Z,21.92
2023-05-19T20:05:55.426Z,19.50
2023-05-19T20:08:45.040Z,23.58
2023-05-19T20:11:34.588Z,25.73
2023-05-19T20:14:24.111Z,21.42
2023-05-19T20:17:15.084Z,21.00
2023-05-19T20:20:10.225Z,27.52
2023-05-19T20:22:59.507Z,24.85
2023-05-19T20:26:02.958Z,27.52
2023-05-19T20:28:59.185Z,20.75
2023-05-19T20:31:48.475Z,26.40
2023-05-19T20:34:39.427Z,24.92
2023-05-19T20:37:28.790Z,23.13
2023-05-19T20:40:18.833Z,20.67
2023-05-19T20:43:08.245Z,17.40
2023-05-19T20:45:57.768Z,18.85
2023-05-19T20:48:47.266Z,18.10
2023-05-19T20:51:37.964Z,16.63
2023-05-19T20:54:27.364Z,25.15
2023-05-19T20:57:16.736Z,21.42
2023-05-19T21:00:07.518Z,24.15
2023-05-19T21:02:57.058Z,25.08
2023-05-19T21:05:46.694Z,23.42
2023-05-19T21:08:37.551Z,31.50
2023-05-19T21:11:27.008Z,27.73
2023-05-19T21:14:16.572Z,24.17
2023-05-19T21:17:07.258Z,26.80
2023-05-19T21:19:59.601Z,21.35
2023-05-19T21:22:48.986Z,24.92
2023-05-19T21:25:42.925Z,18.92
2023-05-19T21:28:33.438Z,21.95
2023-05-19T21:31:22.894Z,20.05
2023-05-19T21:34:12.434Z,25.45
2023-05-19T21:37:01.938Z,25.90
2023-05-19T21:39:51.721Z,20.65
2023-05-19T21:42:42.476Z,20.98
2023-05-19T21:45:31.845Z,20.95
2023-05-19T21:48:21.674Z,24.02
2023-05-19T21:51:11.253Z,20.63
2023-05-19T21:54:00.622Z,25.80
2023-05-19T21:56:49.950Z,27.00
2023-05-19T21:59:40.724Z,24.83
2023-05-19T22:02:30.088Z,24.80
2023-05-19T22:05:19.646Z,26.35
2023-05-19T22:08:09.463Z,25.58
2023-05-19T22:10:58.793Z,26.77
2023-05-19T22:13:48.056Z,22.40
2023-05-19T22:16:38.832Z,26.75
2023-05-19T22:19:28.277Z,24.00
2023-05-19T22:22:17.689Z,25.73
2023-05-19T22:25:08.500Z,21.67
2023-05-19T22:27:59.043Z,29.38
2023-05-19T22:30:48.689Z,24.00
2023-05-19T22:33:39.457Z,26.48
2023-05-19T22:36:28.741Z,23.55
2023-05-19T22:39:18.096Z,20.85
2023-05-19T22:42:07.724Z,26.73
2023-05-19T22:44:57.169Z,29.75
2023-05-19T22:47:50.639Z,24.27
2023-05-19T22:50:45.277Z,26.23
2023-05-19T22:53:39.825Z,23.90
2023-05-19T22:56:34.085Z,22.50
2023-05-19T22:59:44.619Z,25.23
2023-05-19T23:02:38.469Z,29.30
2023-05-19T23:05:32.476Z,28.50
2023-05-19T23:08:25.790Z,26.85
2023-05-19T23:11:15.346Z,27.63
2023-05-19T23:14:06.922Z,28.88
2023-05-19T23:16:58.873Z,27.13
2023-05-19T23:19:48.256Z,26.90
2023-05-19T23:22:40.773Z,28.13
2023-05-19T23:25:34.609Z,24.63
2023-05-19T23:28:28.613Z,24.33
2023-05-19T23:31:18.072Z,25.33
2023-05-19T23:34:11.193Z,23.92
2023-05-19T23:37:03.248Z,26.23
2023-05-19T23:39:55.704Z,28.27
2023-05-19T23:42:46.640Z,28.30
2023-05-19T23:45:38.052Z,22.10
2023-05-19T23:48:29.785Z,23.33
2023-05-19T23:51:19.439Z,19.80
2023-05-19T23:54:09.459Z,22.33
2023-05-19T23:56:59.445Z,30.45
2023-05-19T23:59:52.799Z,26.27
